createdAt,value
2019-03-11T00:01:14.945Z,25.48
2019-03-11T00:03:41.367Z,32.90
2019-03-11T00:06:27.516Z,29.42
2019-03-11T00:08:54.070Z,33.48
2019-03-11T00:11:20.388Z,29.70
2019-03-11T00:13:48.083Z,32.53
2019-03-11T00:16:14.594Z,32.65
2019-03-11T00:18:41.028Z,28.47
2019-03-11T00:21:07.386Z,33.88
2019-03-11T00:23:33.799Z,34.38
2019-03-11T00:26:01.317Z,32.25
2019-03-11T00:28:27.640Z,32.30
2019-03-11T00:31:13.826Z,36.25
2019-03-11T00:33:40.402Z,32.60
2019-03-11T00:36:06.827Z,33.00
2019-03-11T00:38:33.415Z,30.37
2019-03-11T00:40:59.767Z,35.43
2019-03-11T00:43:26.213Z,34.30
2019-03-11T00:45:52.576Z,35.10
2019-03-11T00:48:18.882Z,29.95
2019-03-11T00:50:45.204Z,33.30
2019-03-11T00:53:11.517Z,31.25
2019-03-11T00:55:37.849Z,30.52
2019-03-11T00:58:04.220Z,36.28
2019-03-11T01:00:36.152Z,32.58
2019-03-11T01:03:02.669Z,37.93
2019-03-11T01:05:29.213Z,33.58
2019-03-11T01:07:56.732Z,30.55
2019-03-11T01:10:23.147Z,31.60
2019-03-11T01:12:49.575Z,32.65
2019-03-11T01:15:16.030Z,32.30
2019-03-11T01:17:42.555Z,33.55
2019-03-11T01:20:28.727Z,37.08
2019-03-11T01:22:55.162Z,35.23
2019-03-11T01:25:21.494Z,33.40
2019-03-11T01:27:48.028Z,30.57
2019-03-11T01:30:15.833Z,33.25
2019-03-11T01:32:55.310Z,29.92
2019-03-11T01:35:21.768Z,29.72
2019-03-11T01:38:01.364Z,31.17
2019-03-11T01:40:27.828Z,33.10
2019-03-11T01:42:54.283Z,33.67
2019-03-11T01:45:20.837Z,32.23
2019-03-11T01:47:47.221Z,30.17
2019-03-11T01:50:14.176Z,30.92
2019-03-11T01:52:40.517Z,34.98
2019-03-11T01:55:09.078Z,36.58
2019-03-11T01:57:35.441Z,32.65
2019-03-11T02:00:11.232Z,29.42
2019-03-11T02:02:37.635Z,30.57
2019-03-11T02:05:04.811Z,32.48
2019-03-11T02:07:31.335Z,29.87
2019-03-11T02:09:57.681Z,38.25
2019-03-11T02:12:24.119Z,29.02
2019-03-11T02:14:50.564Z,32.85
2019-03-11T02:17:16.921Z,30.92
2019-03-11T02:20:04.548Z,31.85
2019-03-11T02:22:31.394Z,32.90
2019-03-11T02:24:57.845Z,29.12
2019-03-11T02:27:24.186Z,27.10
2019-03-11T02:29:50.507Z,33.30
2019-03-11T02:32:16.937Z,29.12
2019-03-11T02:34:43.332Z,33.58
2019-03-11T02:37:09.894Z,31.07
2019-03-11T02:39:36.303Z,33.45
2019-03-11T02:42:02.829Z,28.73
2019-03-11T02:44:29.179Z,30.75
2019-03-11T02:46:55.570Z,27.98
2019-03-11T02:49:21.992Z,32.23
2019-03-11T02:51:48.406Z,30.60
2019-03-11T02:54:14.959Z,30.17
2019-03-11T02:56:41.398Z,33.02
2019-03-11T02:59:07.842Z,30.90
2019-03-11T03:01:36.282Z,28.12
2019-03-11T03:04:08.565Z,34.05
2019-03-11T03:06:34.888Z,31.75
2019-03-11T03:09:01.351Z,29.40
2019-03-11T03:11:29.650Z,32.85
2019-03-11T03:13:56.097Z,34.83
2019-03-11T03:16:23.507Z,33.90
2019-03-11T03:18:50.090Z,36.42
2019-03-11T03:21:16.529Z,32.63
2019-03-11T03:23:42.935Z,35.83
2019-03-11T03:26:09.400Z,34.10
2019-03-11T03:28:35.788Z,36.45
2019-03-11T03:31:02.326Z,33.10
2019-03-11T03:33:28.646Z,34.20
2019-03-11T03:35:55.109Z,39.00
2019-03-11T03:38:30.267Z,37.42
2019-03-11T03:40:49.698Z,36.90
2019-03-11T03:43:16.113Z,37.73
2019-03-11T03:46:13.199Z,38.02
2019-03-11T03:48:30.822Z,39.30
2019-03-11T03:50:57.676Z,48.05
2019-03-11T03:53:24.059Z,41.88
2019-03-11T03:55:50.379Z,42.83
2019-03-11T03:58:16.690Z,41.73
2019-03-11T04:00:43.157Z,41.60
2019-03-11T04:03:09.602Z,41.68
2019-03-11T04:05:36.012Z,36.85
2019-03-11T04:08:02.449Z,44.23
2019-03-11T04:10:32.225Z,38.63
2019-03-11T04:12:58.337Z,44.65
2019-03-11T04:15:24.800Z,45.78
2019-03-11T04:17:51.309Z,41.70
2019-03-11T04:20:22.695Z,43.95
2019-03-11T04:22:49.231Z,43.92
2019-03-11T04:25:15.695Z,38.55
2019-03-11T04:27:42.266Z,38.00
2019-03-11T04:30:27.132Z,38.05
2019-03-11T04:32:53.684Z,37.58
2019-03-11T04:35:20.098Z,37.38
2019-03-11T04:37:46.622Z,38.83
2019-03-11T04:40:14.179Z,38.20
2019-03-11T04:42:40.580Z,38.08
2019-03-11T04:45:09.145Z,40.05
2019-03-11T04:47:35.551Z,32.65
2019-03-11T04:50:04.573Z,40.75
2019-03-11T04:52:30.997Z,35.85
2019-03-11T04:54:57.342Z,35.88
2019-03-11T04:57:36.992Z,36.60
2019-03-11T05:00:07.349Z,38.42
2019-03-11T05:02:33.797Z,34.00
2019-03-11T05:05:00.168Z,33.40
2019-03-11T05:07:27.065Z,37.65
2019-03-11T05:09:53.519Z,38.28
2019-03-11T05:12:19.904Z,37.23
2019-03-11T05:14:46.222Z,32.38
2019-03-11T05:17:12.773Z,33.35
2019-03-11T05:19:39.257Z,32.73
2019-03-11T05:22:05.911Z,35.55
2019-03-11T05:24:32.274Z,31.07
2019-03-11T05:26:58.630Z,37.93
2019-03-11T05:29:25.159Z,32.90
2019-03-11T05:32:02.296Z,30.52
2019-03-11T05:34:30.215Z,31.35
2019-03-11T05:36:56.595Z,32.08
2019-03-11T05:39:25.232Z,31.10
2019-03-11T05:41:52.842Z,34.27
2019-03-11T05:44:20.475Z,36.70
2019-03-11T05:46:47.045Z,33.48
2019-03-11T05:49:13.614Z,35.63
2019-03-11T05:51:39.982Z,40.30
2019-03-11T05:54:06.392Z,40.73
2019-03-11T05:56:32.830Z,35.50
2019-03-11T05:58:59.242Z,38.15
2019-03-11T06:01:25.883Z,32.42
2019-03-11T06:03:52.234Z,36.65
2019-03-11T06:06:18.530Z,33.10
2019-03-11T06:08:44.968Z,36.35
2019-03-11T06:11:31.377Z,33.75
2019-03-11T06:13:57.854Z,34.15
2019-03-11T06:16:24.328Z,39.70
2019-03-11T06:18:51.334Z,40.60
2019-03-11T06:21:33.003Z,40.58
2019-03-11T06:23:59.384Z,42.88
2019-03-11T06:26:25.851Z,42.98
2019-03-11T06:28:52.286Z,37.50
2019-03-11T06:31:18.602Z,41.15
2019-03-11T06:33:45.070Z,42.60
2019-03-11T06:36:11.365Z,38.05
2019-03-11T06:38:37.913Z,37.73
2019-03-11T06:41:24.082Z,45.15
2019-03-11T06:43:50.557Z,44.25
2019-03-11T06:46:17.032Z,45.08
2019-03-11T06:48:43.322Z,41.65
2019-03-11T06:51:09.742Z,43.80
2019-03-11T06:53:37.296Z,41.68
2019-03-11T06:56:03.811Z,44.25
2019-03-11T06:58:41.211Z,40.48
2019-03-11T07:01:07.542Z,38.28
2019-03-11T07:03:33.998Z,34.05
2019-03-11T07:06:00.396Z,32.50
2019-03-11T07:08:26.966Z,34.13
2019-03-11T07:10:53.337Z,32.42
2019-03-11T07:13:25.181Z,30.25
2019-03-11T07:15:51.628Z,36.55
2019-03-11T07:18:18.057Z,36.10
2019-03-11T07:20:44.493Z,36.95
2019-03-11T07:23:10.948Z,36.77
2019-03-11T07:25:37.502Z,36.28
2019-03-11T07:28:03.956Z,42.40
2019-03-11T07:30:30.471Z,43.17
2019-03-11T07:32:56.921Z,43.42
2019-03-11T07:35:23.358Z,43.42
2019-03-11T07:37:49.678Z,43.98
2019-03-11T07:40:30.411Z,40.15
2019-03-11T07:42:57.153Z,45.58
2019-03-11T07:45:34.445Z,47.08
2019-03-11T07:48:00.925Z,49.98
2019-03-11T07:50:27.456Z,46.33
2019-03-11T07:52:54.995Z,51.80
2019-03-11T07:55:21.406Z,54.20
2019-03-11T07:57:47.765Z,50.03
2019-03-11T08:00:18.285Z,49.53
2019-03-11T08:02:44.610Z,53.33
2019-03-11T08:05:10.943Z,56.73
2019-03-11T08:07:37.371Z,54.35
2019-03-11T08:10:07.298Z,54.73
2019-03-11T08:12:33.816Z,65.75
2019-03-11T08:15:00.353Z,67.27
2019-03-11T08:17:26.846Z,57.33
2019-03-11T08:19:55.339Z,54.13
2019-03-11T08:22:21.862Z,49.95
2019-03-11T08:24:48.157Z,58.52
2019-03-11T08:27:14.592Z,50.75
2019-03-11T08:29:40.937Z,56.55
2019-03-11T08:32:07.349Z,47.13
2019-03-11T08:34:33.678Z,58.15
2019-03-11T08:36:59.994Z,52.85
2019-03-11T08:39:26.316Z,57.78
2019-03-11T08:41:52.767Z,56.75
2019-03-11T08:44:19.263Z,60.38
2019-03-11T08:46:45.687Z,59.00
2019-03-11T08:49:12.150Z,62.33
2019-03-11T08:51:38.585Z,53.75
2019-03-11T08:54:05.037Z,61.15
2019-03-11T08:56:31.491Z,59.60
2019-03-11T08:58:57.868Z,62.53
2019-03-11T09:01:24.255Z,56.13
2019-03-11T09:03:50.766Z,56.88
2019-03-11T09:06:18.372Z,62.08
2019-03-11T09:08:44.810Z,60.35
2019-03-11T09:11:11.246Z,64.07
2019-03-11T09:13:37.734Z,58.60
2019-03-11T09:16:24.033Z,57.78
2019-03-11T09:18:50.400Z,56.25
2019-03-11T09:21:16.850Z,61.68
2019-03-11T09:23:43.268Z,61.80
2019-03-11T09:26:22.547Z,57.55
2019-03-11T09:28:49.131Z,56.35
2019-03-11T09:31:15.527Z,60.48
2019-03-11T09:33:41.895Z,54.60
2019-03-11T09:36:08.200Z,56.13
2019-03-11T09:38:34.772Z,56.68
2019-03-11T09:41:01.154Z,55.80
2019-03-11T09:43:27.466Z,58.87
2019-03-11T09:45:53.775Z,57.38
2019-03-11T09:48:20.086Z,55.98
2019-03-11T09:50:46.412Z,55.28
2019-03-11T09:53:12.853Z,53.23
2019-03-11T09:55:39.260Z,53.52
2019-03-11T09:58:05.734Z,55.70
2019-03-11T10:00:45.483Z,57.35
2019-03-11T10:03:11.819Z,59.50
2019-03-11T10:05:38.166Z,61.95
2019-03-11T10:08:04.667Z,61.40
2019-03-11T10:10:31.116Z,55.60
2019-03-11T10:12:57.625Z,57.60
2019-03-11T10:15:24.189Z,56.35
2019-03-11T10:17:50.592Z,63.42
2019-03-11T10:20:18.114Z,59.58
2019-03-11T10:22:44.642Z,58.25
2019-03-11T10:25:12.154Z,55.17
2019-03-11T10:27:38.596Z,58.33
2019-03-11T10:30:18.151Z,57.08
2019-03-11T10:32:44.897Z,51.73
2019-03-11T10:35:30.787Z,50.78
2019-03-11T10:37:53.098Z,55.17
2019-03-11T10:40:23.580Z,47.20
2019-03-11T10:42:49.921Z,52.83
2019-03-11T10:45:16.450Z,53.63
2019-03-11T10:48:02.696Z,55.90
2019-03-11T10:50:29.135Z,42.43
2019-03-11T10:52:55.526Z,45.10
2019-03-11T10:55:24.479Z,51.25
2019-03-11T10:57:50.867Z,49.67
2019-03-11T11:00:28.607Z,51.30
2019-03-11T11:02:55.025Z,38.05
2019-03-11T11:05:21.431Z,37.13
2019-03-11T11:07:58.739Z,40.20
2019-03-11T11:10:25.310Z,44.10
2019-03-11T11:12:51.842Z,42.58
2019-03-11T11:15:29.473Z,44.55
2019-03-11T11:17:55.858Z,40.78
2019-03-11T11:20:22.402Z,36.20
2019-03-11T11:22:49.206Z,38.65
2019-03-11T11:25:18.959Z,34.70
2019-03-11T11:27:45.287Z,32.40
2019-03-11T11:30:16.663Z,34.00
2019-03-11T11:32:43.121Z,32.17
2019-03-11T11:35:09.539Z,35.50
2019-03-11T11:37:35.951Z,31.05
2019-03-11T11:40:17.190Z,33.78
2019-03-11T11:42:43.590Z,26.70
2019-03-11T11:45:14.990Z,28.23
2019-03-11T11:47:41.532Z,25.80
2019-03-11T11:50:13.187Z,31.23
2019-03-11T11:52:39.613Z,29.87
2019-03-11T11:55:08.421Z,36.10
2019-03-11T11:57:34.925Z,22.52
2019-03-11T12:00:14.658Z,22.37
2019-03-11T12:02:41.599Z,21.97
2019-03-11T12:05:10.819Z,19.15
2019-03-11T12:07:38.362Z,15.65
2019-03-11T12:10:10.942Z,12.28
2019-03-11T12:12:37.458Z,13.08
2019-03-11T12:15:06.509Z,10.25
2019-03-11T12:17:32.911Z,6.85
2019-03-11T12:19:59.245Z,9.80
2019-03-11T12:22:25.762Z,7.55
2019-03-11T12:24:52.077Z,7.45
2019-03-11T12:27:18.477Z,8.90
2019-03-11T12:29:44.806Z,8.43
2019-03-11T12:32:11.344Z,6.08
2019-03-11T12:34:37.661Z,7.00
2019-03-11T12:37:05.277Z,9.95
2019-03-11T12:39:31.828Z,4.65
2019-03-11T12:42:03.786Z,6.55
2019-03-11T12:44:31.115Z,6.62
2019-03-11T12:47:02.474Z,4.28
2019-03-11T12:49:28.930Z,8.18
2019-03-11T12:51:55.337Z,5.42
2019-03-11T12:54:22.720Z,4.87
2019-03-11T12:57:09.710Z,3.52
2019-03-11T12:59:40.541Z,5.55
2019-03-11T13:02:04.588Z,6.33
2019-03-11T13:04:31.113Z,4.17
2019-03-11T13:06:57.437Z,5.00
2019-03-11T13:09:23.966Z,7.12
2019-03-11T13:11:50.420Z,8.73
2019-03-11T13:14:16.842Z,15.65
2019-03-11T13:16:43.189Z,16.57
2019-03-11T13:19:13.397Z,8.58
2019-03-11T13:21:38.065Z,15.32
2019-03-11T13:24:24.335Z,2.60
2019-03-11T13:26:50.695Z,3.40
2019-03-11T13:29:17.290Z,5.70
2019-03-11T13:31:43.773Z,8.23
2019-03-11T13:34:11.518Z,4.75
2019-03-11T13:36:37.937Z,2.20
2019-03-11T13:39:04.303Z,5.78
2019-03-11T13:41:45.947Z,15.83
2019-03-11T13:44:12.491Z,2.67
2019-03-11T13:46:38.848Z,3.12
2019-03-11T13:49:05.150Z,3.40
2019-03-11T13:51:31.673Z,3.10
2019-03-11T13:54:11.075Z,6.60
2019-03-11T13:56:37.427Z,1.77
2019-03-11T13:59:05.940Z,4.83
2019-03-11T14:01:33.742Z,4.60
2019-03-11T14:04:05.184Z,1.92
2019-03-11T14:06:32.565Z,4.33
2019-03-11T14:08:59.491Z,1.45
2019-03-11T14:11:26.116Z,2.15
2019-03-11T14:13:52.974Z,2.35
2019-03-11T14:16:19.544Z,0.82
2019-03-11T14:18:46.019Z,1.05
2019-03-11T14:21:12.326Z,0.42
2019-03-11T14:23:38.760Z,1.75
2019-03-11T14:26:05.075Z,0.60
2019-03-11T14:28:31.687Z,5.15
2019-03-11T14:30:58.121Z,3.47
2019-03-11T14:33:24.629Z,1.57
2019-03-11T14:35:52.225Z,2.58
2019-03-11T14:38:19.254Z,5.62
2019-03-11T14:40:45.855Z,1.15
2019-03-11T14:43:12.308Z,2.15
2019-03-11T14:45:38.716Z,2.52
2019-03-11T14:48:05.438Z,1.27
2019-03-11T14:50:32.099Z,2.47
2019-03-11T14:52:58.497Z,0.88
2019-03-11T14:55:24.970Z,1.02
2019-03-11T14:57:51.509Z,0.65
2019-03-11T15:00:19.037Z,1.60
2019-03-11T15:02:45.711Z,1.05
2019-03-11T15:05:12.332Z,4.00
2019-03-11T15:07:39.177Z,0.68
2019-03-11T15:10:08.516Z,0.80
2019-03-11T15:12:34.970Z,0.50
2019-03-11T15:15:04.840Z,2.50
2019-03-11T15:17:32.393Z,1.75
2019-03-11T15:19:59.168Z,0.40
2019-03-11T15:22:25.608Z,1.30
2019-03-11T15:24:51.913Z,0.82
2019-03-11T15:27:18.259Z,0.42
2019-03-11T15:29:57.487Z,0.70
2019-03-11T15:32:24.665Z,0.93
2019-03-11T15:34:51.329Z,1.27
2019-03-11T15:37:17.749Z,6.47
2019-03-11T15:39:44.070Z,1.90
2019-03-11T15:42:10.491Z,5.00
2019-03-11T15:44:36.790Z,3.62
2019-03-11T15:47:03.078Z,1.22
2019-03-11T15:49:29.549Z,0.62
2019-03-11T15:51:55.966Z,0.20
2019-03-11T15:54:22.322Z,0.72
2019-03-11T15:56:48.643Z,2.45
2019-03-11T15:59:15.001Z,1.62
2019-03-11T16:01:41.568Z,1.62
2019-03-11T16:04:09.222Z,4.10
2019-03-11T16:06:35.760Z,5.60
2019-03-11T16:09:02.915Z,0.65
2019-03-11T16:11:33.061Z,5.55
2019-03-11T16:13:59.538Z,1.65
2019-03-11T16:16:25.853Z,3.62
2019-03-11T16:18:52.193Z,4.20
2019-03-11T16:21:18.503Z,4.33
2019-03-11T16:23:45.908Z,4.85
2019-03-11T16:26:12.377Z,2.62
2019-03-11T16:28:47.696Z,1.00
2019-03-11T16:31:27.260Z,3.50
2019-03-11T16:34:06.791Z,0.93
2019-03-11T16:36:37.309Z,1.47
2019-03-11T16:39:06.697Z,1.72
2019-03-11T16:41:40.634Z,1.35
2019-03-11T16:44:07.490Z,1.17
2019-03-11T16:46:34.122Z,1.35
2019-03-11T16:49:02.775Z,1.12
2019-03-11T16:51:29.362Z,0.20
2019-03-11T16:53:55.965Z,0.20
2019-03-11T16:56:22.460Z,2.92
2019-03-11T16:58:48.908Z,1.15
2019-03-11T17:01:15.492Z,0.88
2019-03-11T17:03:42.009Z,1.45
2019-03-11T17:06:08.480Z,1.40
2019-03-11T17:08:35.167Z,0.47
2019-03-11T17:11:03.593Z,1.82
2019-03-11T17:13:30.523Z,0.85
2019-03-11T17:15:57.177Z,0.40
2019-03-11T17:18:24.374Z,0.30
2019-03-11T17:20:51.230Z,1.17
2019-03-11T17:23:30.980Z,1.90
2019-03-11T17:25:57.849Z,1.40
2019-03-11T17:28:24.855Z,2.47
2019-03-11T17:30:51.521Z,0.40
2019-03-11T17:33:18.436Z,1.00
2019-03-11T17:35:45.540Z,1.35
2019-03-11T17:38:12.432Z,0.33
2019-03-11T17:40:59.259Z,1.65
2019-03-11T17:46:27.574Z,0.53
2019-03-11T17:48:54.585Z,1.70
2019-03-11T17:51:22.991Z,4.03
2019-03-11T17:53:50.021Z,1.40
2019-03-11T17:56:16.799Z,0.20
2019-03-11T17:58:43.584Z,0.95
2019-03-11T18:01:10.397Z,0.80
2019-03-11T18:03:37.439Z,1.12
2019-03-11T18:06:11.611Z,2.22
2019-03-11T18:08:34.251Z,1.10
2019-03-11T18:11:01.938Z,0.53
2019-03-11T18:13:29.789Z,0.40
2019-03-11T18:15:57.535Z,3.37
2019-03-11T18:18:32.970Z,0.50
2019-03-11T18:20:53.946Z,0.80
2019-03-11T18:23:22.032Z,0.40
2019-03-11T18:25:48.972Z,1.35
2019-03-11T18:28:15.952Z,0.60
2019-03-11T18:30:51.856Z,0.35
2019-03-11T18:33:19.501Z,0.23
2019-03-11T18:35:48.894Z,0.70
2019-03-11T18:38:16.912Z,0.30
2019-03-11T18:40:44.529Z,1.50
2019-03-11T18:43:20.782Z,1.12
2019-03-11T18:45:41.632Z,0.88
2019-03-11T18:48:09.711Z,2.30
2019-03-11T18:50:36.684Z,4.22
2019-03-11T18:53:03.772Z,1.50
2019-03-11T18:55:31.636Z,0.80
2019-03-11T18:57:58.525Z,1.32
2019-03-11T19:00:25.432Z,1.60
2019-03-11T19:02:52.056Z,1.95
2019-03-11T19:05:21.346Z,0.60
2019-03-11T19:07:47.825Z,0.60
2019-03-11T19:10:15.798Z,1.17
2019-03-11T19:12:42.479Z,0.30
2019-03-11T19:15:30.718Z,1.30
2019-03-11T19:17:57.365Z,4.05
2019-03-11T19:20:24.577Z,0.50
2019-03-11T19:22:51.318Z,1.22
2019-03-11T19:25:41.582Z,2.75
2019-03-11T19:28:08.356Z,5.40
2019-03-11T19:30:34.869Z,1.77
2019-03-11T19:33:01.365Z,1.10
2019-03-11T19:35:27.855Z,1.62
2019-03-11T19:37:54.721Z,1.27
2019-03-11T19:40:23.131Z,4.28
2019-03-11T19:42:49.611Z,3.72
2019-03-11T19:45:28.903Z,3.12
2019-03-11T19:48:06.336Z,3.33
2019-03-11T19:50:33.102Z,2.98
2019-03-11T19:52:59.765Z,1.35
2019-03-11T19:55:26.647Z,3.50
2019-03-11T19:57:53.143Z,3.58
2019-03-11T20:00:22.297Z,2.20
2019-03-11T20:02:49.495Z,1.42
2019-03-11T20:05:24.502Z,2.65
2019-03-11T20:07:51.275Z,4.08
2019-03-11T20:10:17.925Z,1.77
2019-03-11T20:12:44.592Z,5.92
2019-03-11T20:15:13.562Z,4.35
2019-03-11T20:17:40.444Z,3.08
2019-03-11T20:20:10.339Z,5.40
2019-03-11T20:22:36.868Z,2.37
2019-03-11T20:25:07.151Z,7.87
2019-03-11T20:27:33.680Z,2.77
2019-03-11T20:30:00.474Z,5.60
2019-03-11T20:32:27.077Z,1.70
2019-03-11T20:34:53.606Z,0.80
2019-03-11T20:37:20.243Z,1.92
2019-03-11T20:39:46.798Z,0.90
2019-03-11T20:42:15.093Z,3.55
2019-03-11T20:44:43.775Z,4.35
2019-03-11T20:47:10.349Z,11.08
2019-03-11T20:49:36.745Z,2.30
2019-03-11T20:52:03.212Z,1.62
2019-03-11T20:54:42.676Z,0.40
2019-03-11T20:57:09.255Z,3.72
2019-03-11T20:59:35.767Z,3.08
2019-03-11T21:02:02.273Z,3.02
2019-03-11T21:04:29.846Z,1.75
2019-03-11T21:06:56.433Z,1.22
2019-03-11T21:09:43.755Z,0.35
2019-03-11T21:12:10.243Z,1.00
2019-03-11T21:14:36.860Z,0.55
2019-03-11T21:17:03.356Z,0.42
2019-03-11T21:19:29.886Z,6.55
2019-03-11T21:21:56.399Z,0.25
2019-03-11T21:24:22.849Z,0.70
2019-03-11T21:26:50.028Z,0.50
2019-03-11T21:29:16.404Z,5.22
2019-03-11T21:31:42.845Z,1.20
2019-03-11T21:34:10.244Z,0.90
2019-03-11T21:36:36.843Z,2.45
2019-03-11T21:39:04.069Z,1.65
2019-03-11T21:41:32.519Z,0.50
2019-03-11T21:43:59.196Z,0.55
2019-03-11T21:46:28.030Z,0.70
2019-03-11T21:48:54.749Z,0.37
2019-03-11T21:51:21.530Z,0.42
2019-03-11T21:53:48.183Z,1.95
2019-03-11T21:56:14.723Z,1.47
2019-03-11T21:58:41.557Z,2.37
2019-03-11T22:01:08.267Z,3.40
2019-03-11T22:03:35.216Z,1.90
2019-03-11T22:06:02.728Z,1.12
2019-03-11T22:08:29.338Z,8.58
2019-03-11T22:10:56.024Z,7.58
2019-03-11T22:13:22.529Z,5.85
2019-03-11T22:16:08.799Z,2.98
2019-03-11T22:18:35.380Z,3.05
2019-03-11T22:21:01.831Z,2.17
2019-03-11T22:23:48.067Z,2.50
2019-03-11T22:26:14.706Z,1.30
2019-03-11T22:28:41.481Z,11.18
2019-03-11T22:31:08.100Z,9.08
2019-03-11T22:33:35.030Z,3.17
2019-03-11T22:36:15.017Z,2.58
2019-03-11T22:38:41.375Z,1.42
2019-03-11T22:41:07.784Z,1.65
2019-03-11T22:43:36.075Z,1.17
2019-03-11T22:46:02.484Z,3.40
2019-03-11T22:48:29.036Z,2.55
2019-03-11T22:51:08.807Z,2.00
2019-03-11T22:53:35.370Z,2.22
2019-03-11T22:56:02.819Z,1.42
2019-03-11T22:58:42.056Z,3.22
2019-03-11T23:01:08.504Z,2.40
2019-03-11T23:03:35.239Z,2.02
2019-03-11T23:06:02.853Z,2.62
2019-03-11T23:08:42.291Z,0.30
2019-03-11T23:11:08.632Z,0.70
2019-03-11T23:13:35.195Z,1.05
2019-03-11T23:16:01.631Z,1.42
2019-03-11T23:18:27.963Z,1.35
2019-03-11T23:20:54.397Z,1.47
2019-03-11T23:23:20.699Z,1.37
2019-03-11T23:25:47.332Z,3.22
2019-03-11T23:28:13.862Z,2.05
2019-03-11T23:30:40.672Z,4.47
2019-03-11T23:33:26.976Z,1.12
2019-03-11T23:35:53.442Z,3.80
2019-03-11T23:38:19.777Z,1.12
2019-03-11T23:40:46.122Z,0.53
2019-03-11T23:43:12.481Z,0.78
2019-03-11T23:45:38.890Z,0.47
2019-03-11T23:48:05.407Z,0.70
2019-03-11T23:50:31.962Z,1.80
2019-03-11T23:52:58.530Z,0.80
2019-03-11T23:55:24.952Z,0.70
2019-03-11T23:57:51.416Z,1.02
